sensor_id;sensor_type;location;lat;lon;timestamp;P1;durP1;ratioP1;P2;durP2;ratioP2
15402;SDS011;7799;53.478;10.170;2023-08-06T00:01:40;0.27;;;0.27;;
15402;SDS011;7799;53.478;10.170;2023-08-06T00:04:07;0.50;;;0.50;;
15402;SDS011;7799;53.478;10.170;2023-08-06T00:06:34;0.50;;;0.43;;
15402;SDS011;7799;53.478;10.170;2023-08-06T00:09:02;0.20;;;0.20;;
15402;SDS011;7799;53.478;10.170;2023-08-06T00:11:28;0.40;;;0.40;;
15402;SDS011;7799;53.478;10.170;2023-08-06T00:13:56;0.40;;;0.37;;
15402;SDS011;7799;53.478;10.170;2023-08-06T00:16:23;0.40;;;0.40;;
15402;SDS011;7799;53.478;10.170;2023-08-06T00:18:50;0.20;;;0.20;;
15402;SDS011;7799;53.478;10.170;2023-08-06T00:21:16;0.33;;;0.33;;
15402;SDS011;7799;53.478;10.170;2023-08-06T00:23:43;0.30;;;0.30;;
15402;SDS011;7799;53.478;10.170;2023-08-06T00:26:11;0.43;;;0.40;;
15402;SDS011;7799;53.478;10.170;2023-08-06T00:28:38;0.43;;;0.30;;
15402;SDS011;7799;53.478;10.170;2023-08-06T00:31:04;0.57;;;0.57;;
15402;SDS011;7799;53.478;10.170;2023-08-06T00:33:31;0.50;;;0.50;;
15402;SDS011;7799;53.478;10.170;2023-08-06T00:35:57;0.63;;;0.60;;
15402;SDS011;7799;53.478;10.170;2023-08-06T00:38:24;0.50;;;0.50;;
15402;SDS011;7799;53.478;10.170;2023-08-06T00:40:51;0.87;;;0.60;;
15402;SDS011;7799;53.478;10.170;2023-08-06T00:43:19;0.60;;;0.60;;
15402;SDS011;7799;53.478;10.170;2023-08-06T00:45:46;0.50;;;0.50;;
15402;SDS011;7799;53.478;10.170;2023-08-06T00:48:13;0.90;;;0.80;;
15402;SDS011;7799;53.478;10.170;2023-08-06T00:50:39;0.73;;;0.73;;
15402;SDS011;7799;53.478;10.170;2023-08-06T00:53:06;1.10;;;1.03;;
15402;SDS011;7799;53.478;10.170;2023-08-06T00:55:33;1.10;;;1.00;;
15402;SDS011;7799;53.478;10.170;2023-08-06T00:58:00;1.03;;;1.03;;
15402;SDS011;7799;53.478;10.170;2023-08-06T01:00:29;0.93;;;0.93;;
15402;SDS011;7799;53.478;10.170;2023-08-06T01:02:56;1.37;;;1.27;;
15402;SDS011;7799;53.478;10.170;2023-08-06T01:05:23;1.00;;;1.00;;
15402;SDS011;7799;53.478;10.170;2023-08-06T01:07:51;1.20;;;1.10;;
15402;SDS011;7799;53.478;10.170;2023-08-06T01:10:29;0.90;;;0.90;;
15402;SDS011;7799;53.478;10.170;2023-08-06T01:13:05;0.90;;;0.90;;
15402;SDS011;7799;53.478;10.170;2023-08-06T01:15:38;0.90;;;0.90;;
15402;SDS011;7799;53.478;10.170;2023-08-06T01:18:07;0.70;;;0.70;;
15402;SDS011;7799;53.478;10.170;2023-08-06T01:20:36;0.80;;;0.80;;
15402;SDS011;7799;53.478;10.170;2023-08-06T01:23:02;1.03;;;1.00;;
15402;SDS011;7799;53.478;10.170;2023-08-06T01:25:30;1.03;;;0.93;;
15402;SDS011;7799;53.478;10.170;2023-08-06T01:28:01;1.00;;;1.00;;
15402;SDS011;7799;53.478;10.170;2023-08-06T01:30:31;0.90;;;0.90;;
15402;SDS011;7799;53.478;10.170;2023-08-06T01:33:01;1.30;;;1.20;;
15402;SDS011;7799;53.478;10.170;2023-08-06T01:35:30;1.00;;;1.00;;
15402;SDS011;7799;53.478;10.170;2023-08-06T01:37:59;0.73;;;0.73;;
15402;SDS011;7799;53.478;10.170;2023-08-06T01:40:26;1.10;;;1.00;;
15402;SDS011;7799;53.478;10.170;2023-08-06T01:42:54;0.80;;;0.80;;
15402;SDS011;7799;53.478;10.170;2023-08-06T01:45:21;1.10;;;1.00;;
15402;SDS011;7799;53.478;10.170;2023-08-06T01:47:49;0.97;;;0.97;;
15402;SDS011;7799;53.478;10.170;2023-08-06T01:50:15;0.87;;;0.87;;
15402;SDS011;7799;53.478;10.170;2023-08-06T01:52:44;0.93;;;0.93;;
15402;SDS011;7799;53.478;10.170;2023-08-06T01:55:12;0.90;;;0.90;;
15402;SDS011;7799;53.478;10.170;2023-08-06T01:57:41;1.03;;;0.93;;
15402;SDS011;7799;53.478;10.170;2023-08-06T02:00:08;0.87;;;0.87;;
15402;SDS011;7799;53.478;10.170;2023-08-06T02:02:38;1.57;;;1.27;;
15402;SDS011;7799;53.478;10.170;2023-08-06T02:05:06;1.50;;;1.40;;
15402;SDS011;7799;53.478;10.170;2023-08-06T02:07:33;1.00;;;1.00;;
15402;SDS011;7799;53.478;10.170;2023-08-06T02:09:59;1.20;;;1.10;;
15402;SDS011;7799;53.478;10.170;2023-08-06T02:12:27;1.20;;;1.10;;
15402;SDS011;7799;53.478;10.170;2023-08-06T02:14:54;1.43;;;1.33;;
15402;SDS011;7799;53.478;10.170;2023-08-06T02:17:20;1.47;;;1.30;;
15402;SDS011;7799;53.478;10.170;2023-08-06T02:19:47;1.30;;;1.20;;
15402;SDS011;7799;53.478;10.170;2023-08-06T02:22:14;1.17;;;1.07;;
15402;SDS011;7799;53.478;10.170;2023-08-06T02:24:40;1.17;;;1.10;;
15402;SDS011;7799;53.478;10.170;2023-08-06T02:27:09;1.20;;;1.10;;
15402;SDS011;7799;53.478;10.170;2023-08-06T02:29:37;1.20;;;1.10;;
15402;SDS011;7799;53.478;10.170;2023-08-06T02:32:06;1.07;;;1.03;;
15402;SDS011;7799;53.478;10.170;2023-08-06T02:34:33;1.50;;;1.40;;
15402;SDS011;7799;53.478;10.170;2023-08-06T02:37:00;1.30;;;1.20;;
15402;SDS011;7799;53.478;10.170;2023-08-06T02:39:26;1.20;;;1.10;;
15402;SDS011;7799;53.478;10.170;2023-08-06T02:41:53;1.30;;;1.20;;
15402;SDS011;7799;53.478;10.170;2023-08-06T02:44:19;1.20;;;1.10;;
15402;SDS011;7799;53.478;10.170;2023-08-06T02:46:47;1.30;;;1.20;;
15402;SDS011;7799;53.478;10.170;2023-08-06T02:49:14;1.30;;;1.20;;
15402;SDS011;7799;53.478;10.170;2023-08-06T02:51:41;1.40;;;1.30;;
15402;SDS011;7799;53.478;10.170;2023-08-06T02:54:07;1.00;;;1.00;;
15402;SDS011;7799;53.478;10.170;2023-08-06T02:56:35;1.10;;;0.97;;
15402;SDS011;7799;53.478;10.170;2023-08-06T02:59:10;1.20;;;1.10;;
15402;SDS011;7799;53.478;10.170;2023-08-06T03:01:51;1.10;;;1.10;;
15402;SDS011;7799;53.478;10.170;2023-08-06T03:04:25;0.83;;;0.83;;
15402;SDS011;7799;53.478;10.170;2023-08-06T03:06:52;1.20;;;1.10;;
15402;SDS011;7799;53.478;10.170;2023-08-06T03:09:22;0.90;;;0.90;;
15402;SDS011;7799;53.478;10.170;2023-08-06T03:11:51;1.23;;;1.00;;
15402;SDS011;7799;53.478;10.170;2023-08-06T03:14:18;1.20;;;1.10;;
15402;SDS011;7799;53.478;10.170;2023-08-06T03:16:45;1.13;;;1.07;;
15402;SDS011;7799;53.478;10.170;2023-08-06T03:19:16;1.37;;;1.27;;
15402;SDS011;7799;53.478;10.170;2023-08-06T03:21:43;1.60;;;1.20;;
15402;SDS011;7799;53.478;10.170;2023-08-06T03:24:10;1.63;;;1.53;;
15402;SDS011;7799;53.478;10.170;2023-08-06T03:26:38;1.27;;;1.17;;
15402;SDS011;7799;53.478;10.170;2023-08-06T03:29:05;1.17;;;1.10;;
15402;SDS011;7799;53.478;10.170;2023-08-06T03:31:34;1.43;;;1.30;;
15402;SDS011;7799;53.478;10.170;2023-08-06T03:34:00;1.40;;;1.30;;
15402;SDS011;7799;53.478;10.170;2023-08-06T03:36:31;1.30;;;1.20;;
15402;SDS011;7799;53.478;10.170;2023-08-06T03:38:57;1.20;;;1.10;;
15402;SDS011;7799;53.478;10.170;2023-08-06T03:41:25;0.97;;;0.97;;
15402;SDS011;7799;53.478;10.170;2023-08-06T03:43:52;1.20;;;1.10;;
15402;SDS011;7799;53.478;10.170;2023-08-06T03:46:23;1.13;;;1.07;;
15402;SDS011;7799;53.478;10.170;2023-08-06T03:48:51;1.47;;;1.17;;
15402;SDS011;7799;53.478;10.170;2023-08-06T03:51:18;1.70;;;1.07;;
15402;SDS011;7799;53.478;10.170;2023-08-06T03:53:48;1.50;;;1.40;;
15402;SDS011;7799;53.478;10.170;2023-08-06T03:56:14;1.47;;;1.37;;
15402;SDS011;7799;53.478;10.170;2023-08-06T03:58:41;1.17;;;1.17;;
15402;SDS011;7799;53.478;10.170;2023-08-06T04:01:08;1.60;;;1.30;;
15402;SDS011;7799;53.478;10.170;2023-08-06T04:03:42;1.70;;;1.60;;
15402;SDS011;7799;53.478;10.170;2023-08-06T04:06:08;1.60;;;1.50;;
15402;SDS011;7799;53.478;10.170;2023-08-06T04:08:35;1.93;;;1.77;;
15402;SDS011;7799;53.478;10.170;2023-08-06T04:11:04;1.67;;;1.57;;
15402;SDS011;7799;53.478;10.170;2023-08-06T04:13:30;1.23;;;1.13;;
15402;SDS011;7799;53.478;10.170;2023-08-06T04:16:00;1.30;;;1.20;;
15402;SDS011;7799;53.478;10.170;2023-08-06T04:18:27;1.50;;;1.40;;
15402;SDS011;7799;53.478;10.170;2023-08-06T04:20:54;1.40;;;1.30;;
15402;SDS011;7799;53.478;10.170;2023-08-06T04:23:22;1.70;;;1.60;;
15402;SDS011;7799;53.478;10.170;2023-08-06T04:25:49;2.07;;;1.50;;
15402;SDS011;7799;53.478;10.170;2023-08-06T04:28:17;1.70;;;1.30;;
15402;SDS011;7799;53.478;10.170;2023-08-06T04:30:44;1.50;;;1.40;;
15402;SDS011;7799;53.478;10.170;2023-08-06T04:33:11;1.23;;;1.13;;
15402;SDS011;7799;53.478;10.170;2023-08-06T04:35:37;1.50;;;1.40;;
15402;SDS011;7799;53.478;10.170;2023-08-06T04:38:04;1.33;;;1.23;;
15402;SDS011;7799;53.478;10.170;2023-08-06T04:40:32;1.37;;;1.27;;
15402;SDS011;7799;53.478;10.170;2023-08-06T04:42:59;1.40;;;1.30;;
15402;SDS011;7799;53.478;10.170;2023-08-06T04:45:30;1.20;;;1.10;;
15402;SDS011;7799;53.478;10.170;2023-08-06T04:47:57;1.60;;;1.50;;
15402;SDS011;7799;53.478;10.170;2023-08-06T04:50:23;1.57;;;1.47;;
15402;SDS011;7799;53.478;10.170;2023-08-06T04:52:50;1.40;;;1.30;;
15402;SDS011;7799;53.478;10.170;2023-08-06T04:55:17;1.50;;;1.40;;
15402;SDS011;7799;53.478;10.170;2023-08-06T04:57:43;1.50;;;1.40;;
15402;SDS011;7799;53.478;10.170;2023-08-06T05:00:11;1.30;;;1.20;;
15402;SDS011;7799;53.478;10.170;2023-08-06T05:02:39;1.60;;;1.50;;
15402;SDS011;7799;53.478;10.170;2023-08-06T05:05:06;1.53;;;1.43;;
15402;SDS011;7799;53.478;10.170;2023-08-06T05:07:33;1.80;;;1.43;;
15402;SDS011;7799;53.478;10.170;2023-08-06T05:09:59;1.60;;;1.50;;
15402;SDS011;7799;53.478;10.170;2023-08-06T05:12:26;1.50;;;1.20;;
15402;SDS011;7799;53.478;10.170;2023-08-06T05:14:53;1.60;;;1.50;;
15402;SDS011;7799;53.478;10.170;2023-08-06T05:17:19;2.27;;;1.40;;
15402;SDS011;7799;53.478;10.170;2023-08-06T05:19:49;1.60;;;1.50;;
15402;SDS011;7799;53.478;10.170;2023-08-06T05:22:16;1.23;;;1.10;;
15402;SDS011;7799;53.478;10.170;2023-08-06T05:24:42;1.37;;;1.23;;
15402;SDS011;7799;53.478;10.170;2023-08-06T05:27:09;1.10;;;1.10;;
15402;SDS011;7799;53.478;10.170;2023-08-06T05:29:35;1.53;;;1.43;;
15402;SDS011;7799;53.478;10.170;2023-08-06T05:32:02;1.20;;;1.10;;
15402;SDS011;7799;53.478;10.170;2023-08-06T05:34:29;1.43;;;1.33;;
15402;SDS011;7799;53.478;10.170;2023-08-06T05:36:57;1.80;;;1.60;;
15402;SDS011;7799;53.478;10.170;2023-08-06T05:39:24;1.50;;;1.40;;
15402;SDS011;7799;53.478;10.170;2023-08-06T05:41:51;1.50;;;1.40;;
15402;SDS011;7799;53.478;10.170;2023-08-06T05:44:17;1.50;;;1.30;;
15402;SDS011;7799;53.478;10.170;2023-08-06T05:46:44;1.50;;;1.40;;
15402;SDS011;7799;53.478;10.170;2023-08-06T05:49:11;2.20;;;2.07;;
15402;SDS011;7799;53.478;10.170;2023-08-06T05:51:39;1.37;;;1.27;;
15402;SDS011;7799;53.478;10.170;2023-08-06T05:54:07;1.77;;;1.67;;
15402;SDS011;7799;53.478;10.170;2023-08-06T05:56:33;1.67;;;1.57;;
15402;SDS011;7799;53.478;10.170;2023-08-06T05:59:00;2.07;;;1.97;;
15402;SDS011;7799;53.478;10.170;2023-08-06T06:01:27;1.57;;;1.47;;
15402;SDS011;7799;53.478;10.170;2023-08-06T06:03:53;1.60;;;1.50;;
15402;SDS011;7799;53.478;10.170;2023-08-06T06:06:20;1.70;;;1.60;;
15402;SDS011;7799;53.478;10.170;2023-08-06T06:08:47;1.90;;;1.80;;
15402;SDS011;7799;53.478;10.170;2023-08-06T06:11:15;1.80;;;1.70;;
15402;SDS011;7799;53.478;10.170;2023-08-06T06:13:41;2.00;;;1.90;;
15402;SDS011;7799;53.478;10.170;2023-08-06T06:16:08;1.60;;;1.50;;
15402;SDS011;7799;53.478;10.170;2023-08-06T06:18:34;1.50;;;1.40;;
15402;SDS011;7799;53.478;10.170;2023-08-06T06:21:01;1.30;;;1.20;;
15402;SDS011;7799;53.478;10.170;2023-08-06T06:23:28;1.40;;;1.30;;
15402;SDS011;7799;53.478;10.170;2023-08-06T06:25:54;1.60;;;1.50;;
15402;SDS011;7799;53.478;10.170;2023-08-06T06:28:22;2.07;;;1.87;;
15402;SDS011;7799;53.478;10.170;2023-08-06T06:30:49;2.30;;;2.10;;
15402;SDS011;7799;53.478;10.170;2023-08-06T06:33:16;1.90;;;1.80;;
15402;SDS011;7799;53.478;10.170;2023-08-06T06:35:42;2.07;;;1.97;;
15402;SDS011;7799;53.478;10.170;2023-08-06T06:38:09;1.60;;;1.50;;
15402;SDS011;7799;53.478;10.170;2023-08-06T06:40:35;1.50;;;1.40;;
15402;SDS011;7799;53.478;10.170;2023-08-06T06:43:02;1.80;;;1.70;;
15402;SDS011;7799;53.478;10.170;2023-08-06T06:45:30;1.33;;;1.23;;
15402;SDS011;7799;53.478;10.170;2023-08-06T06:47:57;1.50;;;1.40;;
15402;SDS011;7799;53.478;10.170;2023-08-06T06:50:24;1.40;;;1.30;;
15402;SDS011;7799;53.478;10.170;2023-08-06T06:52:51;1.60;;;1.50;;
15402;SDS011;7799;53.478;10.170;2023-08-06T06:55:18;1.60;;;1.50;;
15402;SDS011;7799;53.478;10.170;2023-08-06T06:57:44;1.60;;;1.50;;
15402;SDS011;7799;53.478;10.170;2023-08-06T07:00:11;1.50;;;1.40;;
15402;SDS011;7799;53.478;10.170;2023-08-06T07:02:40;2.03;;;1.70;;
15402;SDS011;7799;53.478;10.170;2023-08-06T07:05:07;1.70;;;1.60;;
15402;SDS011;7799;53.478;10.170;2023-08-06T07:07:34;1.73;;;1.63;;
15402;SDS011;7799;53.478;10.170;2023-08-06T07:10:02;1.50;;;1.40;;
15402;SDS011;7799;53.478;10.170;2023-08-06T07:12:30;1.73;;;1.60;;
15402;SDS011;7799;53.478;10.170;2023-08-06T07:14:57;1.70;;;1.60;;
15402;SDS011;7799;53.478;10.170;2023-08-06T07:17:24;1.87;;;1.77;;
15402;SDS011;7799;53.478;10.170;2023-08-06T07:19:52;2.03;;;1.83;;
15402;SDS011;7799;53.478;10.170;2023-08-06T07:22:18;1.67;;;1.57;;
15402;SDS011;7799;53.478;10.170;2023-08-06T07:24:45;1.60;;;1.50;;
15402;SDS011;7799;53.478;10.170;2023-08-06T07:27:12;1.60;;;1.50;;
15402;SDS011;7799;53.478;10.170;2023-08-06T07:29:38;1.67;;;1.57;;
15402;SDS011;7799;53.478;10.170;2023-08-06T07:32:06;1.70;;;1.60;;
15402;SDS011;7799;53.478;10.170;2023-08-06T07:34:33;1.80;;;1.70;;
15402;SDS011;7799;53.478;10.170;2023-08-06T07:37:01;1.70;;;1.60;;
15402;SDS011;7799;53.478;10.170;2023-08-06T07:39:29;1.60;;;1.50;;
15402;SDS011;7799;53.478;10.170;2023-08-06T07:41:55;1.70;;;1.60;;
15402;SDS011;7799;53.478;10.170;2023-08-06T07:44:22;1.90;;;1.80;;
15402;SDS011;7799;53.478;10.170;2023-08-06T07:46:49;1.70;;;1.60;;
15402;SDS011;7799;53.478;10.170;2023-08-06T07:49:15;1.70;;;1.60;;
15402;SDS011;7799;53.478;10.170;2023-08-06T07:51:42;2.00;;;1.90;;
15402;SDS011;7799;53.478;10.170;2023-08-06T07:54:10;1.80;;;1.70;;
15402;SDS011;7799;53.478;10.170;2023-08-06T07:56:37;1.70;;;1.60;;
15402;SDS011;7799;53.478;10.170;2023-08-06T07:59:04;1.77;;;1.67;;
15402;SDS011;7799;53.478;10.170;2023-08-06T08:01:30;1.90;;;1.80;;
15402;SDS011;7799;53.478;10.170;2023-08-06T08:03:57;2.17;;;1.97;;
15402;SDS011;7799;53.478;10.170;2023-08-06T08:06:24;1.60;;;1.50;;
15402;SDS011;7799;53.478;10.170;2023-08-06T08:08:51;2.00;;;1.90;;
15402;SDS011;7799;53.478;10.170;2023-08-06T08:11:19;1.97;;;1.87;;
15402;SDS011;7799;53.478;10.170;2023-08-06T08:13:46;1.80;;;1.70;;
15402;SDS011;7799;53.478;10.170;2023-08-06T08:16:13;2.13;;;1.93;;
15402;SDS011;7799;53.478;10.170;2023-08-06T08:18:39;1.70;;;1.60;;
15402;SDS011;7799;53.478;10.170;2023-08-06T08:21:06;1.57;;;1.47;;
15402;SDS011;7799;53.478;10.170;2023-08-06T08:23:33;2.10;;;1.87;;
15402;SDS011;7799;53.478;10.170;2023-08-06T08:25:59;2.10;;;2.00;;
15402;SDS011;7799;53.478;10.170;2023-08-06T08:28:28;2.33;;;2.13;;
15402;SDS011;7799;53.478;10.170;2023-08-06T08:30:55;2.10;;;1.90;;
15402;SDS011;7799;53.478;10.170;2023-08-06T08:33:22;2.00;;;1.90;;
15402;SDS011;7799;53.478;10.170;2023-08-06T08:35:48;2.17;;;2.07;;
15402;SDS011;7799;53.478;10.170;2023-08-06T08:38:15;2.30;;;2.20;;
15402;SDS011;7799;53.478;10.170;2023-08-06T08:40:44;2.30;;;2.10;;
15402;SDS011;7799;53.478;10.170;2023-08-06T08:43:12;2.27;;;2.17;;
15402;SDS011;7799;53.478;10.170;2023-08-06T08:45:40;2.50;;;2.30;;
15402;SDS011;7799;53.478;10.170;2023-08-06T08:48:08;2.77;;;2.57;;
15402;SDS011;7799;53.478;10.170;2023-08-06T08:50:37;2.57;;;2.33;;
15402;SDS011;7799;53.478;10.170;2023-08-06T08:53:04;2.80;;;2.60;;
15402;SDS011;7799;53.478;10.170;2023-08-06T08:55:31;2.03;;;1.93;;
15402;SDS011;7799;53.478;10.170;2023-08-06T08:57:58;2.27;;;2.17;;
15402;SDS011;7799;53.478;10.170;2023-08-06T09:00:25;2.33;;;2.13;;
15402;SDS011;7799;53.478;10.170;2023-08-06T09:02:53;2.57;;;2.37;;
15402;SDS011;7799;53.478;10.170;2023-08-06T09:05:20;2.93;;;2.67;;
15402;SDS011;7799;53.478;10.170;2023-08-06T09:07:48;2.50;;;2.30;;
15402;SDS011;7799;53.478;10.170;2023-08-06T09:10:16;2.33;;;2.13;;
15402;SDS011;7799;53.478;10.170;2023-08-06T09:12:44;2.40;;;2.20;;
15402;SDS011;7799;53.478;10.170;2023-08-06T09:15:11;2.20;;;2.10;;
15402;SDS011;7799;53.478;10.170;2023-08-06T09:17:38;3.20;;;2.90;;
15402;SDS011;7799;53.478;10.170;2023-08-06T09:20:10;2.80;;;2.60;;
15402;SDS011;7799;53.478;10.170;2023-08-06T09:22:38;2.30;;;2.20;;
15402;SDS011;7799;53.478;10.170;2023-08-06T09:25:06;2.40;;;2.20;;
15402;SDS011;7799;53.478;10.170;2023-08-06T09:27:35;2.17;;;2.07;;
15402;SDS011;7799;53.478;10.170;2023-08-06T09:30:02;1.93;;;1.83;;
15402;SDS011;7799;53.478;10.170;2023-08-06T09:32:36;1.90;;;1.80;;
15402;SDS011;7799;53.478;10.170;2023-08-06T09:35:14;2.50;;;2.30;;
15402;SDS011;7799;53.478;10.170;2023-08-06T09:37:41;2.40;;;2.23;;
15402;SDS011;7799;53.478;10.170;2023-08-06T09:40:22;2.43;;;2.27;;
15402;SDS011;7799;53.478;10.170;2023-08-06T09:42:50;2.20;;;2.00;;
15402;SDS011;7799;53.478;10.170;2023-08-06T09:45:17;2.23;;;2.13;;
15402;SDS011;7799;53.478;10.170;2023-08-06T09:47:44;2.37;;;2.20;;
15402;SDS011;7799;53.478;10.170;2023-08-06T09:50:16;2.53;;;2.33;;
15402;SDS011;7799;53.478;10.170;2023-08-06T09:52:43;2.20;;;2.10;;
15402;SDS011;7799;53.478;10.170;2023-08-06T09:55:10;2.07;;;1.97;;
15402;SDS011;7799;53.478;10.170;2023-08-06T09:57:38;2.17;;;2.07;;
15402;SDS011;7799;53.478;10.170;2023-08-06T10:00:06;2.73;;;2.53;;
15402;SDS011;7799;53.478;10.170;2023-08-06T10:02:38;2.23;;;2.13;;
15402;SDS011;7799;53.478;10.170;2023-08-06T10:05:05;2.57;;;2.37;;
15402;SDS011;7799;53.478;10.170;2023-08-06T10:07:34;2.77;;;2.57;;
15402;SDS011;7799;53.478;10.170;2023-08-06T10:10:02;2.77;;;2.57;;
15402;SDS011;7799;53.478;10.170;2023-08-06T10:12:29;3.70;;;3.40;;
15402;SDS011;7799;53.478;10.170;2023-08-06T10:14:59;4.33;;;3.93;;
15402;SDS011;7799;53.478;10.170;2023-08-06T10:17:28;3.20;;;3.00;;
15402;SDS011;7799;53.478;10.170;2023-08-06T10:19:54;3.40;;;3.03;;
15402;SDS011;7799;53.478;10.170;2023-08-06T10:22:21;2.80;;;2.60;;
15402;SDS011;7799;53.478;10.170;2023-08-06T10:24:51;3.47;;;3.20;;
15402;SDS011;7799;53.478;10.170;2023-08-06T10:27:22;2.80;;;2.60;;
15402;SDS011;7799;53.478;10.170;2023-08-06T10:29:49;3.10;;;2.90;;
15402;SDS011;7799;53.478;10.170;2023-08-06T10:32:16;3.53;;;3.33;;
15402;SDS011;7799;53.478;10.170;2023-08-06T10:34:53;3.10;;;2.90;;
15402;SDS011;7799;53.478;10.170;2023-08-06T10:37:21;3.10;;;2.90;;
15402;SDS011;7799;53.478;10.170;2023-08-06T10:39:50;3.03;;;2.73;;
15402;SDS011;7799;53.478;10.170;2023-08-06T10:42:20;3.40;;;3.10;;
15402;SDS011;7799;53.478;10.170;2023-08-06T10:47:40;2.60;;;2.40;;
15402;SDS011;7799;53.478;10.170;2023-08-06T10:50:07;2.30;;;2.20;;
15402;SDS011;7799;53.478;10.170;2023-08-06T10:52:36;2.50;;;2.40;;
15402;SDS011;7799;53.478;10.170;2023-08-06T10:55:05;2.77;;;2.60;;
15402;SDS011;7799;53.478;10.170;2023-08-06T10:57:32;3.10;;;2.90;;
15402;SDS011;7799;53.478;10.170;2023-08-06T10:59:59;2.80;;;2.60;;
15402;SDS011;7799;53.478;10.170;2023-08-06T11:02:25;3.00;;;2.80;;
15402;SDS011;7799;53.478;10.170;2023-08-06T11:04:52;2.73;;;2.53;;
15402;SDS011;7799;53.478;10.170;2023-08-06T11:07:19;2.73;;;2.57;;
15402;SDS011;7799;53.478;10.170;2023-08-06T11:09:49;2.40;;;2.20;;
15402;SDS011;7799;53.478;10.170;2023-08-06T11:12:19;2.80;;;2.60;;
15402;SDS011;7799;53.478;10.170;2023-08-06T11:14:49;2.20;;;2.07;;
15402;SDS011;7799;53.478;10.170;2023-08-06T11:17:16;2.83;;;2.63;;
15402;SDS011;7799;53.478;10.170;2023-08-06T11:19:43;2.73;;;2.53;;
15402;SDS011;7799;53.478;10.170;2023-08-06T11:22:10;2.63;;;2.47;;
15402;SDS011;7799;53.478;10.170;2023-08-06T11:24:37;2.30;;;2.20;;
15402;SDS011;7799;53.478;10.170;2023-08-06T11:27:10;2.40;;;2.20;;
15402;SDS011;7799;53.478;10.170;2023-08-06T11:29:39;1.93;;;1.83;;
15402;SDS011;7799;53.478;10.170;2023-08-06T11:32:06;1.97;;;1.87;;
15402;SDS011;7799;53.478;10.170;2023-08-06T11:34:33;2.10;;;2.00;;
15402;SDS011;7799;53.478;10.170;2023-08-06T11:37:00;1.67;;;1.57;;
15402;SDS011;7799;53.478;10.170;2023-08-06T11:39:27;1.80;;;1.70;;
15402;SDS011;7799;53.478;10.170;2023-08-06T11:41:54;1.80;;;1.70;;
15402;SDS011;7799;53.478;10.170;2023-08-06T11:44:21;1.90;;;1.80;;
15402;SDS011;7799;53.478;10.170;2023-08-06T11:46:51;1.53;;;1.43;;
15402;SDS011;7799;53.478;10.170;2023-08-06T11:49:21;1.43;;;1.33;;
15402;SDS011;7799;53.478;10.170;2023-08-06T11:52:07;1.70;;;1.60;;
15402;SDS011;7799;53.478;10.170;2023-08-06T11:54:35;1.70;;;1.60;;
15402;SDS011;7799;53.478;10.170;2023-08-06T11:57:02;1.40;;;1.30;;
15402;SDS011;7799;53.478;10.170;2023-08-06T11:59:29;1.80;;;1.70;;
15402;SDS011;7799;53.478;10.170;2023-08-06T12:01:57;1.70;;;1.60;;
15402;SDS011;7799;53.478;10.170;2023-08-06T12:04:24;1.53;;;1.47;;
15402;SDS011;7799;53.478;10.170;2023-08-06T12:06:50;1.70;;;1.60;;
15402;SDS011;7799;53.478;10.170;2023-08-06T12:09:18;1.50;;;1.40;;
15402;SDS011;7799;53.478;10.170;2023-08-06T12:11:45;1.60;;;1.50;;
15402;SDS011;7799;53.478;10.170;2023-08-06T12:14:12;1.50;;;1.40;;
15402;SDS011;7799;53.478;10.170;2023-08-06T12:16:39;2.13;;;1.97;;
15402;SDS011;7799;53.478;10.170;2023-08-06T12:19:07;2.20;;;2.10;;
15402;SDS011;7799;53.478;10.170;2023-08-06T12:21:33;2.10;;;1.90;;
15402;SDS011;7799;53.478;10.170;2023-08-06T12:24:00;1.90;;;1.80;;
15402;SDS011;7799;53.478;10.170;2023-08-06T12:26:27;2.50;;;2.40;;
15402;SDS011;7799;53.478;10.170;2023-08-06T12:28:53;2.20;;;2.10;;
15402;SDS011;7799;53.478;10.170;2023-08-06T12:31:22;2.73;;;2.53;;
15402;SDS011;7799;53.478;10.170;2023-08-06T12:33:49;2.40;;;2.30;;
15402;SDS011;7799;53.478;10.170;2023-08-06T12:36:17;2.63;;;2.43;;
15402;SDS011;7799;53.478;10.170;2023-08-06T12:38:43;2.90;;;2.70;;
15402;SDS011;7799;53.478;10.170;2023-08-06T12:41:10;2.53;;;2.37;;
15402;SDS011;7799;53.478;10.170;2023-08-06T12:43:37;3.10;;;2.83;;
15402;SDS011;7799;53.478;10.170;2023-08-06T12:46:03;2.90;;;2.70;;
15402;SDS011;7799;53.478;10.170;2023-08-06T12:48:30;2.90;;;2.70;;
15402;SDS011;7799;53.478;10.170;2023-08-06T12:50:57;2.80;;;2.60;;
15402;SDS011;7799;53.478;10.170;2023-08-06T12:53:25;2.70;;;2.50;;
15402;SDS011;7799;53.478;10.170;2023-08-06T12:55:51;2.70;;;2.50;;
15402;SDS011;7799;53.478;10.170;2023-08-06T12:58:18;2.40;;;2.30;;
15402;SDS011;7799;53.478;10.170;2023-08-06T13:00:45;2.67;;;2.47;;
15402;SDS011;7799;53.478;10.170;2023-08-06T13:03:12;2.40;;;2.20;;
15402;SDS011;7799;53.478;10.170;2023-08-06T13:05:38;2.10;;;2.00;;
15402;SDS011;7799;53.478;10.170;2023-08-06T13:08:05;2.20;;;2.10;;
15402;SDS011;7799;53.478;10.170;2023-08-06T13:10:33;2.80;;;2.60;;
15402;SDS011;7799;53.478;10.170;2023-08-06T13:13:00;2.10;;;2.00;;
15402;SDS011;7799;53.478;10.170;2023-08-06T13:15:26;2.47;;;2.37;;
15402;SDS011;7799;53.478;10.170;2023-08-06T13:17:53;2.40;;;2.20;;
15402;SDS011;7799;53.478;10.170;2023-08-06T13:20:20;2.20;;;2.10;;
15402;SDS011;7799;53.478;10.170;2023-08-06T13:22:48;2.70;;;2.50;;
15402;SDS011;7799;53.478;10.170;2023-08-06T13:25:15;2.50;;;2.30;;
15402;SDS011;7799;53.478;10.170;2023-08-06T13:27:43;2.77;;;2.57;;
15402;SDS011;7799;53.478;10.170;2023-08-06T13:30:11;2.50;;;2.30;;
15402;SDS011;7799;53.478;10.170;2023-08-06T13:32:38;2.90;;;2.60;;
15402;SDS011;7799;53.478;10.170;2023-08-06T13:35:04;2.43;;;2.30;;
15402;SDS011;7799;53.478;10.170;2023-08-06T13:37:31;2.60;;;2.40;;
15402;SDS011;7799;53.478;10.170;2023-08-06T13:39:58;2.40;;;2.30;;
15402;SDS011;7799;53.478;10.170;2023-08-06T13:42:25;2.67;;;2.47;;
15402;SDS011;7799;53.478;10.170;2023-08-06T13:44:53;2.33;;;2.17;;
15402;SDS011;7799;53.478;10.170;2023-08-06T13:47:24;2.57;;;2.37;;
15402;SDS011;7799;53.478;10.170;2023-08-06T13:49:51;2.40;;;2.30;;
15402;SDS011;7799;53.478;10.170;2023-08-06T13:52:17;2.60;;;2.50;;
15402;SDS011;7799;53.478;10.170;2023-08-06T13:54:44;2.40;;;2.20;;
15402;SDS011;7799;53.478;10.170;2023-08-06T13:57:11;2.73;;;2.53;;
15402;SDS011;7799;53.478;10.170;2023-08-06T13:59:37;2.30;;;2.20;;
15402;SDS011;7799;53.478;10.170;2023-08-06T14:02:05;2.23;;;2.13;;
15402;SDS011;7799;53.478;10.170;2023-08-06T14:04:32;2.10;;;2.00;;
15402;SDS011;7799;53.478;10.170;2023-08-06T14:06:59;2.10;;;2.00;;
15402;SDS011;7799;53.478;10.170;2023-08-06T14:09:25;2.17;;;2.07;;
15402;SDS011;7799;53.478;10.170;2023-08-06T14:11:52;2.43;;;2.30;;
15402;SDS011;7799;53.478;10.170;2023-08-06T14:14:19;2.23;;;2.07;;
15402;SDS011;7799;53.478;10.170;2023-08-06T14:16:51;2.30;;;2.20;;
15402;SDS011;7799;53.478;10.170;2023-08-06T14:19:19;2.27;;;2.17;;
15402;SDS011;7799;53.478;10.170;2023-08-06T14:21:45;2.30;;;2.10;;
15402;SDS011;7799;53.478;10.170;2023-08-06T14:24:12;2.57;;;2.37;;
15402;SDS011;7799;53.478;10.170;2023-08-06T14:26:39;2.37;;;2.27;;
15402;SDS011;7799;53.478;10.170;2023-08-06T14:29:06;2.87;;;2.67;;
15402;SDS011;7799;53.478;10.170;2023-08-06T14:31:32;2.53;;;2.30;;
15402;SDS011;7799;53.478;10.170;2023-08-06T14:33:59;2.40;;;2.20;;
15402;SDS011;7799;53.478;10.170;2023-08-06T14:36:27;2.50;;;2.30;;
15402;SDS011;7799;53.478;10.170;2023-08-06T14:38:54;2.30;;;2.20;;
15402;SDS011;7799;53.478;10.170;2023-08-06T14:41:20;2.27;;;2.17;;
15402;SDS011;7799;53.478;10.170;2023-08-06T14:43:47;2.17;;;2.07;;
15402;SDS011;7799;53.478;10.170;2023-08-06T14:46:14;2.10;;;1.97;;
15402;SDS011;7799;53.478;10.170;2023-08-06T14:48:40;2.40;;;2.20;;
15402;SDS011;7799;53.478;10.170;2023-08-06T14:51:07;2.13;;;1.93;;
15402;SDS011;7799;53.478;10.170;2023-08-06T14:53:35;2.00;;;1.90;;